Accueil
METAR-TAF:

METAR-TAF

Aéroports :

Aéroport d'Angers-Loire

Angers, France

latitude: 47-33-37N, longitude: 000-18-44W, altitude: 59 m

Observation

Le bulletin a été fait il y a 11 minutes, à 12:30 UTC
Vent 7 kt de nord, variant entre ouest/nord-ouest et nord/nord-est
Température 21°C
Humidité 46%
Pression 1022 hPa
Visibilité 10 km ou plus
pas de nuages en-dessous de 1500 mètres et pas de cumulonimbus.

METAR: LFJR 171230Z AUTO 36007KT 300V030 CAVOK 21/09 Q1022 NOSIG

Heure: 14:41 (12:41 UTC)

Prévision

Le bulletin a été fait il y a 1 heure et 41 minutes, à 11:00 UTC
Prévision valable du 17 à 12 UTC au 17 à 21 UTC
Vent 6 kt de nord/nord-ouest
Visibilité 10 km ou plus
pas de nuages en-dessous de 1500 mètres et pas de cumulonimbus.

TAF: LFJR 171100Z 1712/1721 34006KT CAVOK

Observations et prévisions météorologiques de plus de 4000 aéroports (messages METAR et TAF).

Les stations disponibles sont représentées par des disques jaunes et rouges sur la carte.

Passer la souris dessus pour voir le nom de la station.

Cliquer dessus pour voir les observations et prévisions météorologiques.

Pour changer de carte: cliquez sur les boutons verts avec une croix noire pour zoomer, sur le bouton vert avec un tiret pour effectuer un zoom arrière, ou sur les flèches vertes pour les cartes adjacentes.


METAR-TAF: